Horacio Guerrero

Olheiro-Chefe - UTC
4 Abr 2027
Domingo
Processo

Personalidade

Adaptabilidade (7) Ambição (12) Controvérsia (17) Lealdade (12) Pressão (15) Profissionalismo (19) Espírito Esportivo (5) Temperamento (12)

Perfil

Estilo de Treinamento Democrático
Licença Nacional B
Determinação 5
Gestão de Pessoas 9
Motivação 9
Disciplina 8
Satisfação no Trabalho
64%
Fadiga
0%
Função Olheiro-Chefe
Salário 36.6K p/s
Contrato 14.03.2029

Desempenho

Comportamento Bom
Eficácia do Treinamento
18%
Desenvolvimento do Jogador
40%
Prevenção de Lesões
15%
Implementação Tática
35%

Eventos Recentes

Participou de uma reunião de recrutamento 14d atrás
Participou de uma reunião de recrutamento 21d atrás
Participou de uma reunião de recrutamento 28d atrás
Participou de uma reunião de recrutamento 35d atrás
Aniversário 35d atrás
Participou de uma reunião de recrutamento 42d atrás
Participou de uma reunião de recrutamento 49d atrás
Participou de uma reunião de recrutamento 56d atrás

Monitorando agora

79
Jogador Clube Status Habilidade Confiança Observado Última observação Último voto
Assad Al Hamlawi Universitatea Craiova Ativo 140 / 114 40% 1 27.11.2026 -
Radek Šiler Podbrezova Ativo 120 / 124 40% 2 24.11.2026 -
Hernán Luna NK Domzale Ativo 82 / 93 40% 1 24.11.2026 -
Lucas Pazos Kolkheti Ativo 108 / 92 40% 2 23.11.2026 -
Franklin Sasere Birkirkara Ativo 103 / 96 40% 1 23.11.2026 -
Ciprian Coman Pandurii Ativo 127 / 116 40% 1 22.11.2026 Mais informações
César Magallan Estudiantes de Merida Ativo 100 / 106 40% 2 18.11.2026 -
Yurii Klymchuk Kolos Ativo 115 / 99 40% 2 18.11.2026 -
Daniel Tarazona Neftchi Ativo 108 / 89 40% 3 17.11.2026 -
Gilson Benchimol Akron Ativo 95 / 112 40% 1 17.11.2026 -
Carlos Paraco Metalist Ativo 99 / 120 40% 2 16.11.2026 -
Ihor Krasnopir Polissia Ativo 99 / 123 40% 1 14.11.2026 -
Kwame Opoku Asante Kotoko Ativo 97 / 103 40% 2 13.11.2026 -
Ousmane Diawara Altach Ativo 104 / 111 40% 1 13.11.2026 -
Félix Villacorta Orenburg Ativo 85 / 95 40% 3 11.11.2026 -
Mykola Haiduchyk Polissia Ativo 120 / 116 40% 1 11.11.2026 -
Felipe Fernández Vorskla Ativo 117 / 112 40% 3 10.11.2026 Observar
Eric Ramírez Carabobo Ativo 102 / 111 40% 6 09.11.2026 -
Rodrigo Trejo Vorskla Ativo 101 / 90 40% 2 09.11.2026 -
Edarlyn Reyes Arsenal Tula Ativo 98 / 102 40% 3 08.11.2026 -
Vyacheslav Grulev Nizhniy Novgorod Ativo 112 / 107 40% 1 08.11.2026 -
Adalberto Peñaranda Deportivo Tachira Ativo 115 / 114 40% 1 07.11.2026 -
Ieltsin Camões Tromso Ativo 103 / 105 40% 1 04.11.2026 -
Marcelo Torres Gimnasia La Plata Ativo 121 / 123 40% 4 02.11.2026 Observar
Lucas González Estudiantes Ativo 112 / 106 40% 3 01.11.2026 -
Marcus Browne AFC Wimbledon Ativo 98 / 111 40% 1 30.10.2026 -
Ekain Orobengoa Real Sociedad Ativo 115 / 103 40% 2 26.10.2026 -
Yefrín Castillo Lokomotiv Plovdiv Ativo 81 / 97 40% 3 22.10.2026 -
Junior Paredes Trujillanos Ativo 92 / 98 40% 2 19.10.2026 -
Sergio Riffo Kolkheti Ativo 104 / 100 40% 1 17.10.2026 -
Gustavo Rigazzi Metalist Ativo 105 / 93 40% 1 17.10.2026 -
José Martínes CSKA 1948 Ativo 113 / 97 40% 1 16.10.2026 -
Sveinn Aron Guðjohnsen Vikingur Ativo 120 / 119 40% 1 16.10.2026 -
Mauro Schönfeld Stjarnan Ativo 93 / 101 40% 3 14.10.2026 -
José Rivas Gamboa Trujillanos Ativo 112 / 97 40% 2 13.10.2026 -
Ignacio Sabatini Gimnasia y Esgrima Ativo 110 / 103 40% 1 12.10.2026 -
Deyman Cortés Botev Vratsa Ativo 96 / 85 40% 1 08.10.2026 -
Cristhian Medina Smorgon Ativo 80 / 89 40% 1 08.10.2026 -
Joshuan Berríos Carabobo Ativo 104 / 100 40% 3 03.10.2026 -
Augusto Berrondo Tristán Suárez Ativo 107 / 101 40% 1 02.10.2026 -
José Balza Deportivo Tachira Ativo 104 / 106 40% 5 01.10.2026 -
Manuel Rodríguez Millonarios Ativo 78 / 96 40% 1 01.10.2026 -
Brandon Hanlan Doncaster Rovers Ativo 100 / 104 40% 1 29.09.2026 -
Vladislav Sarveli Nizhniy Novgorod Ativo 108 / 111 40% 1 28.09.2026 -
Antony Medrano Dobrudzha Ativo 73 / 90 40% 2 27.09.2026 -
Enzo Larrosa Independiente Medellin Ativo 96 / 109 40% 4 23.09.2026 -
Samuel Anakwe Remo Stars Ativo 84 / 100 40% 1 23.09.2026 -
Peter Christiansen Viking Ativo 105 / 125 40% 1 22.09.2026 -
David Barrero Podbrezova Ativo 92 / 83 40% 1 19.09.2026 -
Juan Cruz Zurbriggen San Telmo Ativo 112 / 102 40% 2 18.09.2026 -
Genaro Rossi San Martín SJ Ativo 110 / 106 40% 3 16.09.2026 -
Sam Nombe Milton Keynes Dons Ativo 110 / 113 40% 1 16.09.2026 -
Shuaibu Ibrahim Wikki Tourists Ativo 89 / 102 40% 1 13.09.2026 -
Tiago Benzi Belgrano Ativo 107 / 105 40% 1 11.09.2026 -
Pablo Latorre Maipú Ativo 90 / 83 40% 1 11.09.2026 -
Vitinho River Plate Ativo 90 / 85 40% 1 10.09.2026 -
Ramiro Ruiz Rodríguez Atlético Tucumán Ativo 131 / 114 40% 3 08.09.2026 -
Tomás Romero Unión de Santa Fe Ativo 108 / 96 40% 2 08.09.2026 -
Andrés Molinas Omonoia Ativo 97 / 100 40% 1 05.09.2026 -
Facundo García Almirante Brown Ativo 84 / 100 40% 1 04.09.2026 -
Matías Mansilla Yenisey Ativo 92 / 85 40% 1 03.09.2026 -
Alexander Rondón Oliveros Deportivo Tachira Ativo 91 / 89 40% 2 02.09.2026 -
Diego Méndez Tacuarembo Ativo 97 / 88 40% 1 29.08.2026 -
Alejandro Samudio Nacional Ativo 95 / 102 40% 1 28.08.2026 -
Kleyder Barreto Zulia Ativo 89 / 91 40% 1 24.08.2026 -
Gustavo Mosquera Botev Vratsa Ativo 96 / 91 40% 1 23.08.2026 -
Juan Cekalovich Gimnasia y Esgrima Ativo 101 / 91 40% 1 21.08.2026 -
Ronny Maza Aragua Ativo 99 / 91 40% 1 14.08.2026 -
Martín Rodríguez Mitre Ativo 102 / 99 40% 1 07.08.2026 -
Jesús Yendis Caracas Ativo 118 / 102 40% 1 07.08.2026 -
Jonathan Bilbao Carabobo Ativo 102 / 97 40% 1 06.08.2026 -
José Pinto Mineros de Guayana Ativo 90 / 109 40% 1 06.08.2026 -
Fabricio Corbalán Gimnasia La Plata Ativo 105 / 122 40% 1 05.08.2026 -
Leandro Quiroz Godoy Cruz Ativo 119 / 114 40% 1 03.08.2026 -
Lucas Souto Defensa y Justicia Ativo 122 / 131 40% 1 03.08.2026 -
Andrés Reyes Atletico Nacional Ativo 119 / 113 40% 1 02.08.2026 -
Santiago González Tigre Ativo 130 / 128 40% 1 02.08.2026 -
Jorge Berlanga Pachuca Ativo 126 / 111 40% 1 01.08.2026 -
Francisco Perruzzi Aldosivi Ativo 108 / 110 40% 1 01.08.2026 -